createdAt,value
2023-04-30T00:02:22.504Z,98447.84
2023-04-30T00:04:50.953Z,98444.69
2023-04-30T00:07:17.926Z,98449.81
2023-04-30T00:09:44.881Z,98452.97
2023-04-30T00:12:11.784Z,98452.97
2023-04-30T00:14:38.676Z,98456.13
2023-04-30T00:17:05.856Z,98450.00
2023-04-30T00:19:32.855Z,98448.06
2023-04-30T00:22:05.460Z,98447.06
2023-04-30T00:24:32.427Z,98442.72
2023-04-30T00:26:59.557Z,98443.91
2023-04-30T00:29:26.612Z,98440.16
2023-04-30T00:31:53.569Z,98443.13
2023-04-30T00:34:20.558Z,98441.94
2023-04-30T00:36:47.504Z,98443.88
2023-04-30T00:39:16.648Z,98446.88
2023-04-30T00:41:43.668Z,98443.09
2023-04-30T00:44:10.789Z,98445.84
2023-04-30T00:46:37.776Z,98440.16
2023-04-30T00:49:05.256Z,98442.91
2023-04-30T00:51:33.202Z,98443.53
2023-04-30T00:54:02.786Z,98439.75
2023-04-30T00:56:31.954Z,98447.81
2023-04-30T00:58:59.404Z,98443.13
2023-04-30T01:01:28.914Z,98437.22
2023-04-30T01:03:55.956Z,98441.13
2023-04-30T01:06:23.552Z,98446.03
2023-04-30T01:08:52.045Z,98442.31
2023-04-30T01:11:28.812Z,98443.47
2023-04-30T01:14:04.580Z,98447.81
2023-04-30T01:16:37.487Z,98442.47
2023-04-30T01:19:09.510Z,98432.81
2023-04-30T01:21:41.503Z,98444.81
2023-04-30T01:24:37.091Z,98438.72
2023-04-30T01:27:13.961Z,98435.94
2023-04-30T01:29:45.343Z,98428.06
2023-04-30T01:32:12.528Z,98428.06
2023-04-30T01:34:40.448Z,98424.72
2023-04-30T01:37:16.247Z,98419.78
2023-04-30T01:39:57.546Z,98415.47
2023-04-30T01:42:30.956Z,98421.34
2023-04-30T01:45:22.619Z,98420.38
2023-04-30T01:47:56.406Z,98418.97
2023-04-30T01:50:33.735Z,98413.47
2023-04-30T01:53:02.916Z,98420.91
2023-04-30T01:55:36.799Z,98416.00
2023-04-30T01:58:07.363Z,98405.16
2023-04-30T02:00:35.842Z,98418.94
2023-04-30T02:03:03.155Z,98425.41
2023-04-30T02:05:30.764Z,98417.13
2023-04-30T02:07:57.792Z,98422.25
2023-04-30T02:10:26.457Z,98427.56
2023-04-30T02:12:53.760Z,98422.84
2023-04-30T02:15:20.971Z,98422.41
2023-04-30T02:17:49.427Z,98419.00
2023-04-30T02:20:16.504Z,98416.84
2023-04-30T02:22:43.552Z,98420.75
2023-04-30T02:25:12.486Z,98417.81
2023-04-30T02:27:40.318Z,98419.94
2023-04-30T02:30:08.461Z,98423.84
2023-04-30T02:32:35.537Z,98417.53
2023-04-30T02:35:04.484Z,98423.59
2023-04-30T02:37:31.412Z,98418.09
2023-04-30T02:39:58.652Z,98426.94
2023-04-30T02:42:25.920Z,98428.66
2023-04-30T02:44:53.094Z,98422.56
2023-04-30T02:47:20.054Z,98422.13
2023-04-30T02:49:47.074Z,98418.00
2023-04-30T02:52:15.448Z,98426.03
2023-04-30T02:54:43.123Z,98421.28
2023-04-30T02:57:10.049Z,98420.50
2023-04-30T02:59:37.617Z,98418.53
2023-04-30T03:02:05.751Z,98423.81
2023-04-30T03:04:32.688Z,98425.56
2023-04-30T03:07:00.539Z,98424.78
2023-04-30T03:09:29.904Z,98427.69
2023-04-30T03:11:56.816Z,98426.31
2023-04-30T03:14:23.860Z,98431.41
2023-04-30T03:16:50.869Z,98430.81
2023-04-30T03:19:22.066Z,98436.28
2023-04-30T03:21:49.077Z,98428.38
2023-04-30T03:24:15.963Z,98430.75
2023-04-30T03:26:44.259Z,98431.19
2023-04-30T03:29:11.357Z,98438.66
2023-04-30T03:31:38.335Z,98443.59
2023-04-30T03:34:05.322Z,98441.63
2023-04-30T03:36:33.422Z,98443.81
2023-04-30T03:39:00.558Z,98444.78
2023-04-30T03:41:27.611Z,98442.47
2023-04-30T03:43:56.009Z,98442.69
2023-04-30T03:46:23.210Z,98447.63
2023-04-30T03:48:50.194Z,98451.09
2023-04-30T03:51:22.184Z,98453.00
2023-04-30T03:53:49.385Z,98459.50
2023-04-30T03:56:16.822Z,98456.81
2023-04-30T03:58:43.777Z,98457.66
2023-04-30T04:01:12.121Z,98459.63
2023-04-30T04:03:39.113Z,98455.94
2023-04-30T04:06:06.390Z,98460.44
2023-04-30T04:08:34.162Z,98459.81
2023-04-30T04:11:01.167Z,98464.72
2023-04-30T04:13:30.959Z,98458.50
2023-04-30T04:15:58.488Z,98458.69
2023-04-30T04:18:27.110Z,98458.16
2023-04-30T04:20:54.837Z,98461.28
2023-04-30T04:23:22.119Z,98458.19
2023-04-30T04:25:52.474Z,98458.41
2023-04-30T04:28:20.400Z,98460.59
2023-04-30T04:30:49.767Z,98468.66
2023-04-30T04:33:17.281Z,98462.81
2023-04-30T04:35:46.106Z,98457.72
2023-04-30T04:38:13.161Z,98466.22
2023-04-30T04:40:40.327Z,98467.66
2023-04-30T04:43:07.518Z,98461.41
2023-04-30T04:45:34.484Z,98467.94
2023-04-30T04:48:01.466Z,98468.16
2023-04-30T04:50:28.801Z,98464.38
2023-04-30T04:53:00.188Z,98469.72
2023-04-30T04:55:27.674Z,98469.34
2023-04-30T04:57:54.654Z,98472.53
2023-04-30T05:00:23.195Z,98466.47
2023-04-30T05:02:50.402Z,98461.56
2023-04-30T05:05:17.562Z,98466.31
2023-04-30T05:07:44.521Z,98473.59
2023-04-30T05:10:12.842Z,98476.97
2023-04-30T05:12:39.855Z,98479.94
2023-04-30T05:15:07.736Z,98482.91
2023-04-30T05:17:37.489Z,98473.97
2023-04-30T05:20:07.432Z,98478.19
2023-04-30T05:22:34.628Z,98466.31
2023-04-30T05:25:01.544Z,98470.03
2023-04-30T05:27:29.998Z,98478.09
2023-04-30T05:29:57.061Z,98468.75
2023-04-30T05:32:24.201Z,98468.91
2023-04-30T05:34:51.398Z,98467.75
2023-04-30T05:37:20.105Z,98464.56
2023-04-30T05:39:47.633Z,98468.06
2023-04-30T05:42:14.635Z,98464.88
2023-04-30T05:44:42.980Z,98464.78
2023-04-30T05:47:09.939Z,98468.44
2023-04-30T05:49:36.849Z,98471.53
2023-04-30T05:52:04.239Z,98470.81
2023-04-30T05:54:31.521Z,98465.81
2023-04-30T05:56:58.726Z,98469.09
2023-04-30T05:59:26.078Z,98483.94
2023-04-30T06:01:54.433Z,98470.50
2023-04-30T06:04:21.407Z,98475.25
2023-04-30T06:06:48.570Z,98476.06
2023-04-30T06:09:16.092Z,98473.00
2023-04-30T06:11:45.416Z,98477.81
2023-04-30T06:14:12.413Z,98474.66
2023-04-30T06:16:39.439Z,98471.66
2023-04-30T06:19:07.989Z,98474.06
2023-04-30T06:21:35.247Z,98473.50
2023-04-30T06:24:02.165Z,98484.06
2023-04-30T06:26:29.151Z,98476.34
2023-04-30T06:28:56.308Z,98477.06
2023-04-30T06:31:23.308Z,98480.53
2023-04-30T06:33:50.612Z,98481.00
2023-04-30T06:36:19.645Z,98475.81
2023-04-30T06:38:47.080Z,98477.78
2023-04-30T06:41:14.636Z,98474.72
2023-04-30T06:43:41.552Z,98476.03
2023-04-30T06:46:09.069Z,98469.53
2023-04-30T06:48:35.997Z,98468.31
2023-04-30T06:51:02.914Z,98469.94
2023-04-30T06:53:31.260Z,98468.66
2023-04-30T06:55:58.214Z,98473.75
2023-04-30T06:58:25.718Z,98473.81
2023-04-30T07:00:52.831Z,98472.81
2023-04-30T07:03:20.109Z,98469.47
2023-04-30T07:05:47.161Z,98471.38
2023-04-30T07:08:15.189Z,98476.25
2023-04-30T07:10:43.527Z,98468.06
2023-04-30T07:13:10.570Z,98468.47
2023-04-30T07:15:38.113Z,98470.19
2023-04-30T07:18:05.092Z,98465.63
2023-04-30T07:20:32.421Z,98466.13
2023-04-30T07:22:59.397Z,98471.34
2023-04-30T07:25:26.312Z,98468.06
2023-04-30T07:27:55.394Z,98461.66
2023-04-30T07:30:24.902Z,98457.03
2023-04-30T07:32:52.310Z,98450.97
2023-04-30T07:35:19.349Z,98463.06
2023-04-30T07:37:46.303Z,98458.75
2023-04-30T07:40:21.922Z,98461.69
2023-04-30T07:42:57.600Z,98459.84
2023-04-30T07:45:24.788Z,98465.75
2023-04-30T07:47:51.915Z,98461.53
2023-04-30T07:50:18.932Z,98456.34
2023-04-30T07:52:46.072Z,98460.56
2023-04-30T07:55:13.429Z,98458.44
2023-04-30T07:57:40.447Z,98462.59
2023-04-30T08:00:09.658Z,98467.41
2023-04-30T08:02:45.892Z,98466.09
2023-04-30T08:05:13.747Z,98463.81
2023-04-30T08:07:41.466Z,98462.94
2023-04-30T08:10:09.208Z,98465.19
2023-04-30T08:12:37.080Z,98462.41
2023-04-30T08:15:05.390Z,98464.78
2023-04-30T08:17:33.769Z,98455.03
2023-04-30T08:20:01.048Z,98459.44
2023-04-30T08:22:28.003Z,98449.03
2023-04-30T08:24:55.803Z,98451.25
2023-04-30T08:27:23.351Z,98446.34
2023-04-30T08:29:50.406Z,98447.91
2023-04-30T08:32:19.640Z,98452.19
2023-04-30T08:34:48.171Z,98444.53
2023-04-30T08:37:15.883Z,98440.13
2023-04-30T08:39:42.865Z,98445.09
2023-04-30T08:42:14.033Z,98445.00
2023-04-30T08:44:44.078Z,98440.75
2023-04-30T08:47:14.445Z,98433.66
2023-04-30T08:49:41.787Z,98433.94
2023-04-30T08:52:11.200Z,98428.34
2023-04-30T08:54:38.269Z,98440.19
2023-04-30T08:57:08.590Z,98426.66
2023-04-30T08:59:35.810Z,98433.59
2023-04-30T09:02:02.966Z,98420.75
2023-04-30T09:04:30.921Z,98416.31
2023-04-30T09:07:02.325Z,98423.03
2023-04-30T09:09:38.410Z,98414.13
2023-04-30T09:12:18.410Z,98414.25
2023-04-30T09:14:59.340Z,98416.13
2023-04-30T09:17:26.650Z,98410.38
2023-04-30T09:19:54.111Z,98408.06
2023-04-30T09:22:24.623Z,98407.28
2023-04-30T09:24:53.536Z,98401.41
2023-04-30T09:27:22.178Z,98399.66
2023-04-30T09:29:49.196Z,98402.53
2023-04-30T09:32:16.202Z,98393.09
2023-04-30T09:34:43.739Z,98391.84
2023-04-30T09:37:11.577Z,98390.75
2023-04-30T09:39:49.732Z,98395.47
2023-04-30T09:42:19.661Z,98382.69
2023-04-30T09:44:47.619Z,98376.19
2023-04-30T09:47:16.833Z,98369.63
2023-04-30T09:49:45.025Z,98373.13
2023-04-30T09:52:12.723Z,98371.72
2023-04-30T09:54:41.190Z,98374.59
2023-04-30T09:57:11.399Z,98374.19
2023-04-30T09:59:44.160Z,98376.41
2023-04-30T10:02:15.260Z,98361.25
2023-04-30T10:04:44.807Z,98371.59
2023-04-30T10:07:16.281Z,98367.38
2023-04-30T10:09:50.323Z,98365.34
2023-04-30T10:12:22.624Z,98372.22
2023-04-30T10:14:56.145Z,98367.16
2023-04-30T10:17:28.585Z,98361.50
2023-04-30T10:19:58.935Z,98353.19
2023-04-30T10:22:26.382Z,98362.25
2023-04-30T10:24:54.341Z,98365.84
2023-04-30T10:27:21.517Z,98364.25
2023-04-30T10:29:50.085Z,98353.91
2023-04-30T10:32:19.783Z,98358.88
2023-04-30T10:34:54.822Z,98364.47
2023-04-30T10:37:30.271Z,98367.19
2023-04-30T10:39:57.584Z,98357.25
2023-04-30T10:42:24.572Z,98357.19
2023-04-30T10:44:52.090Z,98360.91
2023-04-30T10:47:21.284Z,98359.53
2023-04-30T10:49:49.635Z,98360.53
2023-04-30T10:52:27.651Z,98351.97
2023-04-30T10:54:54.691Z,98351.59
2023-04-30T10:57:22.701Z,98352.59
2023-04-30T10:59:53.563Z,98353.59
2023-04-30T11:02:22.126Z,98351.06
2023-04-30T11:05:12.248Z,98354.91
2023-04-30T11:07:49.210Z,98346.44
2023-04-30T11:10:17.492Z,98353.88
2023-04-30T11:12:48.662Z,98355.75
2023-04-30T11:15:17.983Z,98351.56
2023-04-30T11:17:50.451Z,98354.44
2023-04-30T11:20:23.438Z,98347.53
2023-04-30T11:23:08.678Z,98347.66
2023-04-30T11:25:41.105Z,98338.09
2023-04-30T11:28:08.979Z,98349.91
2023-04-30T11:30:36.812Z,98356.22
2023-04-30T11:33:05.345Z,98344.56
2023-04-30T11:35:32.564Z,98350.41
2023-04-30T11:38:00.365Z,98345.34
2023-04-30T11:40:27.869Z,98334.00
2023-04-30T11:42:55.903Z,98327.88
2023-04-30T11:45:23.794Z,98329.03
2023-04-30T11:47:52.594Z,98334.84
2023-04-30T11:50:29.748Z,98321.94
2023-04-30T11:52:58.172Z,98326.38
2023-04-30T11:55:26.346Z,98327.06
2023-04-30T11:57:55.935Z,98332.19
2023-04-30T12:00:27.550Z,98324.16
2023-04-30T12:03:00.159Z,98326.47
2023-04-30T12:05:28.779Z,98326.69
2023-04-30T12:07:57.563Z,98316.22
2023-04-30T12:10:25.944Z,98316.03
2023-04-30T12:12:54.651Z,98312.44
2023-04-30T12:15:26.684Z,98311.31
2023-04-30T12:17:55.985Z,98301.97
2023-04-30T12:20:25.119Z,98307.38
2023-04-30T12:22:53.857Z,98308.03
2023-04-30T12:25:22.780Z,98303.38
2023-04-30T12:27:51.954Z,98302.47
2023-04-30T12:30:21.361Z,98297.81
2023-04-30T12:32:50.710Z,98301.25
2023-04-30T12:35:19.795Z,98297.81
2023-04-30T12:37:48.343Z,98296.06
2023-04-30T12:40:18.772Z,98289.31
2023-04-30T12:42:49.354Z,98287.06
2023-04-30T12:45:44.129Z,98290.56
2023-04-30T12:48:11.553Z,98288.81
2023-04-30T12:50:39.373Z,98291.88
2023-04-30T12:53:07.731Z,98278.28
2023-04-30T12:55:37.512Z,98279.97
2023-04-30T12:58:08.760Z,98289.09
2023-04-30T13:00:46.405Z,98281.25
2023-04-30T13:03:13.501Z,98272.56
2023-04-30T13:05:41.823Z,98259.97
2023-04-30T13:08:09.660Z,98265.88
2023-04-30T13:10:38.188Z,98255.59
2023-04-30T13:13:05.132Z,98262.53
2023-04-30T13:15:32.708Z,98263.44
2023-04-30T13:17:59.747Z,98257.31
2023-04-30T13:20:27.504Z,98256.13
2023-04-30T13:22:54.432Z,98253.97
2023-04-30T13:25:22.388Z,98254.22
2023-04-30T13:27:50.732Z,98253.91
2023-04-30T13:30:17.903Z,98255.44
2023-04-30T13:32:46.066Z,98260.56
2023-04-30T13:35:13.019Z,98252.66
2023-04-30T13:37:40.008Z,98247.50
2023-04-30T13:40:08.499Z,98244.22
2023-04-30T13:42:38.829Z,98241.25
2023-04-30T13:45:09.005Z,98250.03
2023-04-30T13:47:36.147Z,98250.69
2023-04-30T13:50:03.265Z,98244.94
2023-04-30T13:52:30.519Z,98251.03
2023-04-30T13:54:57.535Z,98248.19
2023-04-30T13:57:24.719Z,98249.66
2023-04-30T13:59:52.046Z,98251.25
2023-04-30T14:02:20.417Z,98251.00
2023-04-30T14:05:02.056Z,98252.28
2023-04-30T14:07:32.421Z,98263.00
2023-04-30T14:09:59.344Z,98260.44
2023-04-30T14:12:26.312Z,98266.06
2023-04-30T14:14:53.452Z,98269.56
2023-04-30T14:17:21.942Z,98265.69
2023-04-30T14:19:48.951Z,98265.97
2023-04-30T14:22:17.048Z,98273.66
2023-04-30T14:24:44.149Z,98267.13
2023-04-30T14:27:11.139Z,98265.31
2023-04-30T14:29:38.045Z,98264.25
2023-04-30T14:32:06.852Z,98266.88
2023-04-30T14:34:35.213Z,98257.94
2023-04-30T14:37:02.790Z,98259.09
2023-04-30T14:39:29.695Z,98261.59
2023-04-30T14:41:57.027Z,98255.66
2023-04-30T14:44:25.570Z,98261.41
2023-04-30T14:46:52.651Z,98256.03
2023-04-30T14:49:19.548Z,98252.53
2023-04-30T14:51:48.367Z,98261.94
2023-04-30T14:54:15.425Z,98262.06
2023-04-30T14:56:42.421Z,98247.56
2023-04-30T14:59:09.681Z,98253.31
2023-04-30T15:01:36.753Z,98258.78
2023-04-30T15:04:03.751Z,98257.84
2023-04-30T15:06:31.078Z,98262.28
2023-04-30T15:09:01.192Z,98259.53
2023-04-30T15:11:28.348Z,98260.63
2023-04-30T15:13:55.534Z,98263.81
2023-04-30T15:16:22.777Z,98266.00
2023-04-30T15:18:50.073Z,98268.38
2023-04-30T15:21:17.005Z,98263.78
2023-04-30T15:23:44.320Z,98263.94
2023-04-30T15:26:12.858Z,98267.94
2023-04-30T15:28:39.885Z,98273.75
2023-04-30T15:31:06.880Z,98271.63
2023-04-30T15:33:39.568Z,98273.19
2023-04-30T15:36:06.826Z,98275.50
2023-04-30T15:38:33.946Z,98268.91
2023-04-30T15:41:00.969Z,98273.81
2023-04-30T15:43:30.067Z,98265.56
2023-04-30T15:45:57.205Z,98273.78
2023-04-30T15:48:24.169Z,98279.38
2023-04-30T15:50:51.213Z,98269.56
2023-04-30T15:53:18.208Z,98273.75
2023-04-30T15:55:46.628Z,98276.16
2023-04-30T15:58:16.800Z,98271.72
2023-04-30T16:00:45.204Z,98277.13
2023-04-30T16:03:12.436Z,98274.72
2023-04-30T16:05:40.550Z,98275.78
2023-04-30T16:08:09.604Z,98276.56
2023-04-30T16:10:37.015Z,98281.31
2023-04-30T16:13:04.181Z,98276.94
2023-04-30T16:15:31.191Z,98275.47
2023-04-30T16:17:59.830Z,98276.13
2023-04-30T16:20:27.795Z,98276.47
2023-04-30T16:22:55.216Z,98284.19
2023-04-30T16:25:22.786Z,98277.28
2023-04-30T16:27:50.399Z,98281.59
2023-04-30T16:30:17.569Z,98294.28
2023-04-30T16:32:44.715Z,98294.22
2023-04-30T16:35:13.146Z,98295.47
2023-04-30T16:37:40.137Z,98299.81
2023-04-30T16:40:08.327Z,98304.63
2023-04-30T16:42:36.886Z,98305.78
2023-04-30T16:45:04.462Z,98312.44
2023-04-30T16:47:31.516Z,98315.44
2023-04-30T16:49:58.613Z,98318.47
2023-04-30T16:52:27.838Z,98323.03
2023-04-30T16:54:54.781Z,98330.19
2023-04-30T16:57:23.730Z,98325.09
2023-04-30T16:59:51.012Z,98323.09
2023-04-30T17:02:18.079Z,98328.69
2023-04-30T17:04:45.072Z,98334.50
2023-04-30T17:07:14.567Z,98342.13
2023-04-30T17:09:43.096Z,98334.59
2023-04-30T17:12:10.135Z,98337.25
2023-04-30T17:14:37.702Z,98339.38
2023-04-30T17:17:07.809Z,98341.25
2023-04-30T17:19:37.800Z,98344.88
2023-04-30T17:22:05.184Z,98347.53
2023-04-30T17:24:32.191Z,98343.06
2023-04-30T17:27:01.133Z,98354.00
2023-04-30T17:29:28.507Z,98351.69
2023-04-30T17:31:55.968Z,98366.50
2023-04-30T17:34:23.083Z,98357.38
2023-04-30T17:36:50.365Z,98360.47
2023-04-30T17:39:18.871Z,98368.25
2023-04-30T17:41:46.259Z,98371.06
2023-04-30T17:44:15.314Z,98378.28
2023-04-30T17:46:42.409Z,98376.97
2023-04-30T17:49:10.137Z,98387.81
2023-04-30T17:51:37.223Z,98380.75
2023-04-30T17:54:05.469Z,98387.44
2023-04-30T17:56:33.212Z,98390.22
2023-04-30T17:59:00.828Z,98389.41
2023-04-30T18:01:29.249Z,98387.50
2023-04-30T18:03:56.288Z,98392.69
2023-04-30T18:06:23.384Z,98393.66
2023-04-30T18:08:50.867Z,98401.66
2023-04-30T18:11:17.787Z,98410.41
2023-04-30T18:13:45.052Z,98411.38
2023-04-30T18:16:13.391Z,98405.63
2023-04-30T18:18:44.616Z,98414.13
2023-04-30T18:21:14.409Z,98418.00
2023-04-30T18:23:41.439Z,98420.81
2023-04-30T18:26:08.432Z,98424.63
2023-04-30T18:28:36.078Z,98423.28
2023-04-30T18:31:03.528Z,98420.34
2023-04-30T18:33:30.471Z,98426.50
2023-04-30T18:36:02.426Z,98420.72
2023-04-30T18:38:30.844Z,98435.19
2023-04-30T18:40:57.943Z,98441.84
2023-04-30T18:43:25.094Z,98440.53
2023-04-30T18:45:52.586Z,98441.78
2023-04-30T18:48:19.849Z,98440.16
2023-04-30T18:50:46.840Z,98438.72
2023-04-30T18:53:15.784Z,98445.41
2023-04-30T18:55:44.738Z,98444.09
2023-04-30T18:58:11.946Z,98452.56
2023-04-30T19:00:41.029Z,98459.03
2023-04-30T19:03:08.194Z,98454.31
2023-04-30T19:05:35.954Z,98461.00
2023-04-30T19:08:03.142Z,98459.34
2023-04-30T19:10:31.483Z,98456.69
2023-04-30T19:12:58.387Z,98456.88
2023-04-30T19:15:25.692Z,98464.34
2023-04-30T19:17:52.763Z,98465.03
2023-04-30T19:20:19.725Z,98461.59
2023-04-30T19:22:50.201Z,98465.13
2023-04-30T19:25:17.975Z,98466.88
2023-04-30T19:27:46.900Z,98463.97
2023-04-30T19:30:14.510Z,98482.00
2023-04-30T19:32:41.586Z,98488.09
2023-04-30T19:35:09.182Z,98482.31
2023-04-30T19:37:36.751Z,98482.25
2023-04-30T19:40:07.597Z,98487.31
2023-04-30T19:42:34.558Z,98484.06
2023-04-30T19:45:03.020Z,98482.97
2023-04-30T19:47:30.028Z,98485.69
2023-04-30T19:49:57.337Z,98490.22
2023-04-30T19:52:24.570Z,98487.00
2023-04-30T19:54:51.699Z,98498.56
2023-04-30T19:57:18.813Z,98494.91
2023-04-30T19:59:47.303Z,98498.31
2023-04-30T20:02:15.852Z,98496.66
2023-04-30T20:04:43.200Z,98498.59
2023-04-30T20:07:10.310Z,98490.19
2023-04-30T20:09:37.606Z,98500.44
2023-04-30T20:12:05.455Z,98507.84
2023-04-30T20:14:32.662Z,98499.22
2023-04-30T20:16:59.707Z,98500.91
2023-04-30T20:19:28.448Z,98508.75
2023-04-30T20:21:55.442Z,98511.47
2023-04-30T20:24:22.730Z,98514.72
2023-04-30T20:26:49.889Z,98508.22
2023-04-30T20:29:18.573Z,98518.13
2023-04-30T20:31:45.681Z,98505.53
2023-04-30T20:34:13.520Z,98521.25
2023-04-30T20:36:41.876Z,98513.16
2023-04-30T20:39:08.816Z,98518.66
2023-04-30T20:41:36.200Z,98513.16
2023-04-30T20:44:03.163Z,98518.19
2023-04-30T20:46:32.149Z,98519.97
2023-04-30T20:49:04.291Z,98526.72
2023-04-30T20:51:31.452Z,98539.84
2023-04-30T20:54:01.801Z,98535.94
2023-04-30T20:56:30.458Z,98540.72
2023-04-30T20:58:57.420Z,98542.19
2023-04-30T21:01:24.372Z,98537.34
2023-04-30T21:03:51.710Z,98549.09
2023-04-30T21:06:19.031Z,98547.63
2023-04-30T21:08:46.450Z,98544.16
2023-04-30T21:11:14.738Z,98559.91
2023-04-30T21:13:41.917Z,98572.03
2023-04-30T21:16:09.011Z,98596.88
2023-04-30T21:18:36.110Z,98594.53
2023-04-30T21:21:04.090Z,98575.78
2023-04-30T21:23:31.586Z,98575.94
2023-04-30T21:25:58.713Z,98573.50
2023-04-30T21:28:27.165Z,98565.63
2023-04-30T21:30:57.191Z,98571.34
2023-04-30T21:33:24.406Z,98569.28
2023-04-30T21:35:51.416Z,98567.84
2023-04-30T21:38:18.345Z,98561.84
2023-04-30T21:40:45.733Z,98564.81
2023-04-30T21:43:12.682Z,98553.84
2023-04-30T21:45:43.188Z,98563.94
2023-04-30T21:48:10.465Z,98575.59
2023-04-30T21:50:38.695Z,98576.03
2023-04-30T21:53:05.960Z,98588.59
2023-04-30T21:55:32.911Z,98576.00
2023-04-30T21:57:59.899Z,98582.72
2023-04-30T22:00:28.091Z,98585.66
2023-04-30T22:02:58.731Z,98590.59
2023-04-30T22:05:26.042Z,98585.22
2023-04-30T22:07:53.092Z,98583.66
2023-04-30T22:10:19.972Z,98578.72
2023-04-30T22:12:47.958Z,98588.44
2023-04-30T22:15:15.467Z,98586.88
2023-04-30T22:17:42.584Z,98593.00
2023-04-30T22:20:12.245Z,98587.88
2023-04-30T22:22:39.773Z,98585.50
2023-04-30T22:25:09.347Z,98591.41
2023-04-30T22:27:36.345Z,98577.41
2023-04-30T22:30:03.986Z,98584.16
2023-04-30T22:32:34.339Z,98587.06
2023-04-30T22:35:04.604Z,98590.22
2023-04-30T22:37:33.423Z,98593.38
2023-04-30T22:40:00.664Z,98592.00
2023-04-30T22:42:28.645Z,98586.06
2023-04-30T22:44:55.698Z,98589.66
2023-04-30T22:47:23.136Z,98585.56
2023-04-30T22:49:50.359Z,98592.34
2023-04-30T22:52:17.287Z,98593.13
2023-04-30T22:54:45.616Z,98593.28
2023-04-30T22:57:12.568Z,98596.56
2023-04-30T22:59:39.483Z,98600.88
2023-04-30T23:02:06.450Z,98595.31
2023-04-30T23:04:34.171Z,98599.88
2023-04-30T23:07:01.166Z,98597.16
2023-04-30T23:09:28.696Z,98604.16
2023-04-30T23:11:57.211Z,98607.72
2023-04-30T23:14:24.148Z,98610.28
2023-04-30T23:16:51.076Z,98612.88
2023-04-30T23:19:18.012Z,98610.94
2023-04-30T23:21:44.945Z,98610.53
2023-04-30T23:24:11.878Z,98611.41
2023-04-30T23:26:39.095Z,98604.16
2023-04-30T23:29:07.392Z,98603.47
2023-04-30T23:31:34.408Z,98609.41
2023-04-30T23:34:01.404Z,98621.41
2023-04-30T23:36:28.336Z,98606.78
2023-04-30T23:38:55.289Z,98617.28
2023-04-30T23:41:22.223Z,98619.03
2023-04-30T23:43:49.144Z,98623.44
2023-04-30T23:46:17.836Z,98626.88
2023-04-30T23:48:44.862Z,98616.78
2023-04-30T23:51:11.860Z,98616.06
2023-04-30T23:53:39.650Z,98610.94
2023-04-30T23:56:08.558Z,98604.66
2023-04-30T23:58:35.621Z,98614.47
